createdAt,value
2018-05-15T00:00:50.277Z,101383.30
2018-05-15T00:03:19.421Z,101373.42
2018-05-15T00:05:48.547Z,101374.34
2018-05-15T00:08:17.738Z,101372.98
2018-05-15T00:10:47.217Z,101374.42
2018-05-15T00:13:16.338Z,101376.14
2018-05-15T00:15:45.455Z,101377.13
2018-05-15T00:18:14.916Z,101374.42
2018-05-15T00:20:44.043Z,101386.03
2018-05-15T00:23:13.039Z,101381.66
2018-05-15T00:25:42.522Z,101386.63
2018-05-15T00:28:11.471Z,101380.34
2018-05-15T00:30:40.644Z,101381.23
2018-05-15T00:33:09.796Z,101383.02
2018-05-15T00:35:38.909Z,101378.41
2018-05-15T00:38:08.087Z,101379.83
2018-05-15T00:40:37.124Z,101379.39
2018-05-15T00:43:06.254Z,101374.50
2018-05-15T00:45:36.251Z,101377.04
2018-05-15T00:48:05.784Z,101370.66
2018-05-15T00:50:34.907Z,101367.96
2018-05-15T00:53:04.043Z,101368.02
2018-05-15T00:55:46.186Z,101371.09
2018-05-15T00:58:15.306Z,101366.61
2018-05-15T01:00:44.461Z,101367.09
2018-05-15T01:03:13.904Z,101366.98
2018-05-15T01:05:43.015Z,101366.55
2018-05-15T01:08:12.129Z,101371.03
2018-05-15T01:10:41.572Z,101375.58
2018-05-15T01:13:10.693Z,101370.58
2018-05-15T01:15:39.820Z,101366.95
2018-05-15T01:18:09.269Z,101364.71
2018-05-15T01:20:38.616Z,101363.91
2018-05-15T01:23:07.765Z,101364.28
2018-05-15T01:25:38.026Z,101362.91
2018-05-15T01:28:07.139Z,101363.36
2018-05-15T01:30:36.107Z,101359.80
2018-05-15T01:33:05.248Z,101361.55
2018-05-15T01:35:34.369Z,101365.55
2018-05-15T01:38:03.488Z,101365.17
2018-05-15T01:40:32.872Z,101361.06
2018-05-15T01:43:01.999Z,101363.77
2018-05-15T01:45:30.985Z,101362.84
2018-05-15T01:48:00.265Z,101356.03
2018-05-15T01:50:29.383Z,101365.98
2018-05-15T01:52:58.552Z,101365.61
2018-05-15T01:55:27.687Z,101364.63
2018-05-15T01:57:56.807Z,101367.76
2018-05-15T02:00:25.933Z,101369.97
2018-05-15T02:02:55.736Z,101365.92
2018-05-15T02:05:24.863Z,101359.17
2018-05-15T02:07:53.975Z,101361.06
2018-05-15T02:10:23.415Z,101356.90
2018-05-15T02:12:52.536Z,101355.61
2018-05-15T02:15:21.643Z,101351.55
2018-05-15T02:17:50.792Z,101360.44
2018-05-15T02:20:19.903Z,101347.91
2018-05-15T02:22:49.030Z,101351.05
2018-05-15T02:25:18.216Z,101353.69
2018-05-15T02:27:47.365Z,101354.17
2018-05-15T02:30:16.484Z,101355.09
2018-05-15T02:32:45.628Z,101356.33
2018-05-15T02:35:14.753Z,101356.38
2018-05-15T02:37:43.864Z,101358.16
2018-05-15T02:40:13.019Z,101356.73
2018-05-15T02:42:42.135Z,101354.98
2018-05-15T02:45:11.247Z,101360.78
2018-05-15T02:47:40.793Z,101359.95
2018-05-15T02:50:10.049Z,101361.73
2018-05-15T02:52:39.167Z,101355.52
2018-05-15T02:55:08.325Z,101351.41
2018-05-15T02:57:37.437Z,101351.41
2018-05-15T03:00:06.559Z,101359.45
2018-05-15T03:02:35.714Z,101359.72
2018-05-15T03:05:04.964Z,101360.72
2018-05-15T03:07:34.075Z,101363.68
2018-05-15T03:10:03.569Z,101365.05
2018-05-15T03:12:32.686Z,101367.31
2018-05-15T03:15:01.800Z,101369.85
2018-05-15T03:17:30.956Z,101371.86
2018-05-15T03:20:00.125Z,101370.70
2018-05-15T03:22:29.461Z,101372.40
2018-05-15T03:24:58.599Z,101378.08
2018-05-15T03:27:27.740Z,101377.49
2018-05-15T03:29:56.854Z,101379.30
2018-05-15T03:32:25.999Z,101375.34
2018-05-15T03:34:55.139Z,101380.25
2018-05-15T03:37:24.250Z,101376.45
2018-05-15T03:39:53.394Z,101370.70
2018-05-15T03:42:22.528Z,101381.20
2018-05-15T03:44:51.647Z,101385.69
2018-05-15T03:47:26.239Z,101384.53
2018-05-15T03:49:55.351Z,101388.16
2018-05-15T03:52:24.472Z,101389.58
2018-05-15T03:54:53.428Z,101394.98
2018-05-15T03:57:22.542Z,101392.71
2018-05-15T03:59:51.671Z,101392.79
2018-05-15T04:02:32.013Z,101392.96
2018-05-15T04:05:12.509Z,101395.81
2018-05-15T04:07:52.856Z,101395.45
2018-05-15T04:10:22.027Z,101401.35
2018-05-15T04:12:51.138Z,101399.98
2018-05-15T04:15:20.577Z,101403.63
2018-05-15T04:17:51.436Z,101401.98
2018-05-15T04:20:20.580Z,101408.34
2018-05-15T04:22:49.712Z,101400.39
2018-05-15T04:25:18.836Z,101408.55
2018-05-15T04:27:47.990Z,101408.97
2018-05-15T04:30:17.106Z,101412.53
2018-05-15T04:32:46.227Z,101408.62
2018-05-15T04:35:15.943Z,101415.02
2018-05-15T04:37:45.153Z,101415.80
2018-05-15T04:40:14.325Z,101413.17
2018-05-15T04:42:43.925Z,101422.62
2018-05-15T04:45:13.123Z,101422.67
2018-05-15T04:47:42.250Z,101426.67
2018-05-15T04:50:17.268Z,101425.81
2018-05-15T04:52:51.941Z,101423.11
2018-05-15T04:55:21.110Z,101431.18
2018-05-15T04:57:50.228Z,101432.69
2018-05-15T05:00:19.340Z,101431.83
2018-05-15T05:02:48.491Z,101439.00
2018-05-15T05:05:17.608Z,101439.05
2018-05-15T05:07:46.862Z,101446.77
2018-05-15T05:10:16.030Z,101446.77
2018-05-15T05:12:50.663Z,101441.16
2018-05-15T05:15:19.807Z,101441.89
2018-05-15T05:17:48.995Z,101450.55
2018-05-15T05:20:18.268Z,101454.59
2018-05-15T05:22:47.435Z,101454.16
2018-05-15T05:25:16.564Z,101463.09
2018-05-15T05:27:45.661Z,101452.68
2018-05-15T05:30:14.843Z,101449.06
2018-05-15T05:32:49.550Z,101456.30
2018-05-15T05:35:18.704Z,101456.86
2018-05-15T05:37:47.879Z,101455.92
2018-05-15T05:40:16.999Z,101458.62
2018-05-15T05:42:46.152Z,101464.59
2018-05-15T05:45:15.555Z,101462.02
2018-05-15T05:47:44.686Z,101465.49
2018-05-15T05:50:13.834Z,101465.92
2018-05-15T05:52:48.349Z,101471.34
2018-05-15T05:55:17.496Z,101475.39
2018-05-15T05:57:46.623Z,101468.63
2018-05-15T06:00:15.737Z,101474.16
2018-05-15T06:02:44.886Z,101472.69
2018-05-15T06:05:14.071Z,101475.88
2018-05-15T06:07:43.195Z,101477.79
2018-05-15T06:10:12.566Z,101483.11
2018-05-15T06:12:41.686Z,101486.19
2018-05-15T06:15:10.818Z,101486.67
2018-05-15T06:17:39.966Z,101489.48
2018-05-15T06:20:09.083Z,101485.43
2018-05-15T06:22:38.249Z,101492.73
2018-05-15T06:25:08.572Z,101484.40
2018-05-15T06:27:37.781Z,101487.59
2018-05-15T06:30:07.043Z,101495.92
2018-05-15T06:32:36.194Z,101488.50
2018-05-15T06:35:05.320Z,101499.07
2018-05-15T06:37:34.364Z,101492.13
2018-05-15T06:40:03.506Z,101498.86
2018-05-15T06:42:32.650Z,101498.34
2018-05-15T06:45:01.772Z,101508.49
2018-05-15T06:47:31.642Z,101510.22
2018-05-15T06:50:00.760Z,101500.40
2018-05-15T06:52:29.898Z,101507.45
2018-05-15T06:54:59.558Z,101511.56
2018-05-15T06:57:28.671Z,101508.87
2018-05-15T06:59:57.967Z,101510.65
2018-05-15T07:02:27.127Z,101511.38
2018-05-15T07:04:56.251Z,101512.73
2018-05-15T07:07:25.425Z,101516.41
2018-05-15T07:09:54.571Z,101519.58
2018-05-15T07:12:23.686Z,101525.97
2018-05-15T07:14:52.811Z,101523.76
2018-05-15T07:17:21.962Z,101526.78
2018-05-15T07:19:51.081Z,101531.44
2018-05-15T07:22:20.197Z,101541.06
2018-05-15T07:24:49.519Z,101535.53
2018-05-15T07:27:18.701Z,101544.06
2018-05-15T07:29:48.030Z,101547.55
2018-05-15T07:32:17.217Z,101548.95
2018-05-15T07:34:46.361Z,101550.30
2018-05-15T07:37:15.475Z,101554.53
2018-05-15T07:39:47.653Z,101553.43
2018-05-15T07:42:16.783Z,101551.72
2018-05-15T07:44:45.938Z,101554.42
2018-05-15T07:47:15.072Z,101561.27
2018-05-15T07:49:44.263Z,101562.14
2018-05-15T07:52:13.789Z,101556.61
2018-05-15T07:54:42.919Z,101556.50
2018-05-15T07:57:12.049Z,101561.21
2018-05-15T07:59:41.207Z,101562.61
2018-05-15T08:02:10.344Z,101559.92
2018-05-15T08:04:39.728Z,101562.78
2018-05-15T08:07:08.876Z,101564.64
2018-05-15T08:09:37.744Z,101564.57
2018-05-15T08:12:06.639Z,101564.52
2018-05-15T08:14:36.194Z,101566.59
2018-05-15T08:17:05.986Z,101569.52
2018-05-15T08:19:35.163Z,101573.93
2018-05-15T08:22:04.291Z,101573.82
2018-05-15T08:24:33.419Z,101583.06
2018-05-15T08:27:02.568Z,101573.18
2018-05-15T08:29:31.730Z,101578.09
2018-05-15T08:32:00.867Z,101577.34
2018-05-15T08:34:30.424Z,101575.94
2018-05-15T08:36:59.852Z,101574.16
2018-05-15T08:39:29.032Z,101570.97
2018-05-15T08:41:58.697Z,101573.36
2018-05-15T08:44:27.830Z,101569.37
2018-05-15T08:46:56.968Z,101573.70
2018-05-15T08:49:31.504Z,101572.95
2018-05-15T08:52:00.639Z,101572.22
2018-05-15T08:54:29.761Z,101573.19
2018-05-15T08:56:58.909Z,101570.17
2018-05-15T08:59:28.350Z,101570.77
2018-05-15T09:01:57.606Z,101564.28
2018-05-15T09:04:26.766Z,101569.92
2018-05-15T09:06:55.894Z,101574.19
2018-05-15T09:09:25.030Z,101570.75
2018-05-15T09:11:54.080Z,101566.35
2018-05-15T09:14:23.035Z,101568.48
2018-05-15T09:16:52.158Z,101573.55
2018-05-15T09:19:21.516Z,101572.02
2018-05-15T09:21:50.762Z,101572.84
2018-05-15T09:24:20.624Z,101574.14
2018-05-15T09:26:49.828Z,101574.78
2018-05-15T09:29:18.990Z,101577.72
2018-05-15T09:31:48.327Z,101568.19
2018-05-15T09:34:17.546Z,101570.03
2018-05-15T09:36:46.828Z,101567.55
2018-05-15T09:39:15.945Z,101575.02
2018-05-15T09:41:45.086Z,101572.06
2018-05-15T09:44:14.354Z,101576.04
2018-05-15T09:46:43.511Z,101569.19
2018-05-15T09:49:12.742Z,101578.09
2018-05-15T09:51:41.909Z,101568.56
2018-05-15T09:54:11.052Z,101570.70
2018-05-15T09:56:40.252Z,101570.44
2018-05-15T09:59:09.499Z,101565.89
2018-05-15T10:01:38.828Z,101561.61
2018-05-15T10:04:08.035Z,101575.80
2018-05-15T10:06:38.141Z,101577.48
2018-05-15T10:09:07.598Z,101574.87
2018-05-15T10:11:37.022Z,101569.37
2018-05-15T10:14:06.216Z,101575.80
2018-05-15T10:16:36.111Z,101574.58
2018-05-15T10:19:05.698Z,101572.31
2018-05-15T10:21:34.849Z,101567.25
2018-05-15T10:24:03.973Z,101574.84
2018-05-15T10:26:33.215Z,101572.28
2018-05-15T10:29:02.975Z,101571.73
2018-05-15T10:31:32.242Z,101575.22
2018-05-15T10:34:01.439Z,101568.03
2018-05-15T10:36:30.583Z,101562.98
2018-05-15T10:38:59.755Z,101566.24
2018-05-15T10:41:28.920Z,101552.52
2018-05-15T10:43:58.145Z,101556.84
2018-05-15T10:46:27.530Z,101552.86
2018-05-15T10:48:57.864Z,101551.71
2018-05-15T10:51:26.991Z,101549.66
2018-05-15T10:53:56.145Z,101553.23
2018-05-15T10:56:25.295Z,101549.89
2018-05-15T10:58:54.443Z,101537.69
2018-05-15T11:01:24.206Z,101541.20
2018-05-15T11:03:53.596Z,101541.89
2018-05-15T11:06:22.750Z,101545.09
2018-05-15T11:08:51.902Z,101544.39
2018-05-15T11:11:21.785Z,101544.77
2018-05-15T11:13:51.520Z,101548.39
2018-05-15T11:16:20.781Z,101539.70
2018-05-15T11:18:50.526Z,101542.67
2018-05-15T11:21:31.115Z,101541.34
2018-05-15T11:24:25.288Z,101548.08
2018-05-15T11:26:54.429Z,101541.05
2018-05-15T11:29:23.615Z,101536.14
2018-05-15T11:31:52.776Z,101541.27
2018-05-15T11:34:21.951Z,101541.41
2018-05-15T11:36:51.089Z,101538.48
2018-05-15T11:39:20.259Z,101532.20
2018-05-15T11:41:49.446Z,101527.52
2018-05-15T11:44:18.612Z,101532.20
2018-05-15T11:46:47.742Z,101529.96
2018-05-15T11:49:17.683Z,101531.92
2018-05-15T11:51:47.086Z,101534.02
2018-05-15T11:54:15.745Z,101524.55
2018-05-15T11:56:44.915Z,101524.09
2018-05-15T11:59:14.147Z,101523.69
2018-05-15T12:01:43.290Z,101521.59
2018-05-15T12:04:12.487Z,101516.98
2018-05-15T12:06:41.735Z,101526.08
2018-05-15T12:09:10.897Z,101525.67
2018-05-15T12:11:40.082Z,101522.02
2018-05-15T12:14:09.232Z,101520.04
2018-05-15T12:16:38.547Z,101518.63
2018-05-15T12:19:07.692Z,101524.89
2018-05-15T12:21:36.816Z,101522.11
2018-05-15T12:24:05.937Z,101516.33
2018-05-15T12:26:35.079Z,101522.17
2018-05-15T12:29:04.258Z,101515.44
2018-05-15T12:31:33.387Z,101526.51
2018-05-15T12:34:02.927Z,101525.30
2018-05-15T12:36:32.171Z,101519.83
2018-05-15T12:39:01.353Z,101517.39
2018-05-15T12:41:31.760Z,101511.44
2018-05-15T12:44:01.137Z,101505.02
2018-05-15T12:46:30.404Z,101506.26
2018-05-15T12:48:59.940Z,101507.89
2018-05-15T12:51:29.178Z,101513.91
2018-05-15T12:53:58.350Z,101512.02
2018-05-15T12:56:27.455Z,101508.30
2018-05-15T12:58:57.571Z,101506.26
2018-05-15T13:01:27.316Z,101511.30
2018-05-15T13:03:56.487Z,101509.94
2018-05-15T13:06:25.634Z,101507.30
2018-05-15T13:08:55.628Z,101507.95
2018-05-15T13:11:24.772Z,101507.73
2018-05-15T13:13:53.911Z,101508.96
2018-05-15T13:16:23.066Z,101507.89
2018-05-15T13:18:52.284Z,101511.30
2018-05-15T13:21:23.453Z,101505.45
2018-05-15T13:23:52.604Z,101505.02
2018-05-15T13:26:21.747Z,101502.55
2018-05-15T13:28:50.911Z,101502.98
2018-05-15T13:31:20.149Z,101501.48
2018-05-15T13:33:49.136Z,101501.13
2018-05-15T13:36:18.316Z,101499.76
2018-05-15T13:38:47.435Z,101490.87
2018-05-15T13:41:16.779Z,101496.48
2018-05-15T13:43:45.954Z,101486.73
2018-05-15T13:46:15.093Z,101484.91
2018-05-15T13:48:44.220Z,101485.03
2018-05-15T13:51:13.388Z,101492.22
2018-05-15T13:53:42.556Z,101495.07
2018-05-15T13:56:11.720Z,101493.63
2018-05-15T13:58:41.248Z,101494.06
2018-05-15T14:01:12.263Z,101496.56
2018-05-15T14:03:41.256Z,101484.05
2018-05-15T14:06:10.559Z,101485.67
2018-05-15T14:08:39.735Z,101484.45
2018-05-15T14:11:11.288Z,101483.28
2018-05-15T14:13:42.022Z,101485.75
2018-05-15T14:16:13.593Z,101484.34
2018-05-15T14:18:46.180Z,101481.61
2018-05-15T14:21:21.642Z,101485.32
2018-05-15T14:23:57.803Z,101478.56
2018-05-15T14:26:28.635Z,101486.33
2018-05-15T14:28:57.947Z,101482.91
2018-05-15T14:31:27.119Z,101480.34
2018-05-15T14:33:56.495Z,101481.91
2018-05-15T14:36:25.633Z,101480.11
2018-05-15T14:38:57.781Z,101473.36
2018-05-15T14:41:40.462Z,101474.30
2018-05-15T14:44:12.837Z,101480.69
2018-05-15T14:46:43.107Z,101485.23
2018-05-15T14:49:13.055Z,101480.89
2018-05-15T14:51:43.621Z,101476.84
2018-05-15T14:54:15.947Z,101473.73
2018-05-15T14:56:45.812Z,101471.45
2018-05-15T14:59:14.974Z,101469.73
2018-05-15T15:01:47.155Z,101470.16
2018-05-15T15:04:17.133Z,101461.22
2018-05-15T15:06:46.256Z,101463.92
2018-05-15T15:09:19.097Z,101463.55
2018-05-15T15:11:49.862Z,101453.02
2018-05-15T15:14:19.047Z,101453.59
2018-05-15T15:16:50.543Z,101450.58
2018-05-15T15:19:19.905Z,101451.04
2018-05-15T15:21:49.027Z,101457.14
2018-05-15T15:24:20.427Z,101445.91
2018-05-15T15:26:49.585Z,101440.02
2018-05-15T15:29:21.066Z,101438.64
2018-05-15T15:31:52.816Z,101438.14
2018-05-15T15:34:22.680Z,101440.42
2018-05-15T15:36:52.364Z,101441.55
2018-05-15T15:39:21.489Z,101435.50
2018-05-15T15:41:50.652Z,101433.17
2018-05-15T15:44:22.293Z,101429.97
2018-05-15T15:46:51.739Z,101435.81
2018-05-15T15:49:22.095Z,101438.23
2018-05-15T15:51:51.955Z,101430.26
2018-05-15T15:54:21.099Z,101435.81
2018-05-15T15:56:50.228Z,101427.24
2018-05-15T15:59:22.236Z,101428.59
2018-05-15T16:01:51.373Z,101424.84
2018-05-15T16:04:23.173Z,101420.28
2018-05-15T16:06:53.046Z,101417.95
2018-05-15T16:09:22.203Z,101425.41
2018-05-15T16:11:52.660Z,101426.69
2018-05-15T16:14:24.754Z,101417.44
2018-05-15T16:16:54.479Z,101415.10
2018-05-15T16:19:27.978Z,101413.95
2018-05-15T16:21:58.075Z,101411.20
2018-05-15T16:24:27.090Z,101410.91
2018-05-15T16:26:58.087Z,101411.80
2018-05-15T16:29:31.999Z,101410.39
2018-05-15T16:32:01.214Z,101408.61
2018-05-15T16:34:30.392Z,101404.72
2018-05-15T16:37:01.495Z,101408.46
2018-05-15T16:39:33.059Z,101404.57
2018-05-15T16:42:02.004Z,101402.94
2018-05-15T16:44:31.137Z,101408.03
2018-05-15T16:47:02.826Z,101404.69
2018-05-15T16:49:32.279Z,101408.83
2018-05-15T16:52:02.537Z,101406.40
2018-05-15T16:54:31.991Z,101407.20
2018-05-15T16:57:01.143Z,101396.81
2018-05-15T16:59:30.583Z,101403.52
2018-05-15T17:01:59.983Z,101397.67
2018-05-15T17:04:29.315Z,101394.75
2018-05-15T17:07:01.676Z,101399.43
2018-05-15T17:09:31.225Z,101405.84
2018-05-15T17:12:02.806Z,101404.00
2018-05-15T17:14:34.813Z,101404.84
2018-05-15T17:17:04.992Z,101403.86
2018-05-15T17:19:35.661Z,101407.91
2018-05-15T17:22:05.274Z,101401.84
2018-05-15T17:24:34.430Z,101412.89
2018-05-15T17:27:03.564Z,101412.80
2018-05-15T17:29:34.900Z,101418.52
2018-05-15T17:32:05.736Z,101418.09
2018-05-15T17:34:35.329Z,101416.45
2018-05-15T17:37:04.475Z,101418.88
2018-05-15T17:39:33.626Z,101415.16
2018-05-15T17:42:06.420Z,101416.30
2018-05-15T17:44:38.892Z,101419.50
2018-05-15T17:47:09.440Z,101414.59
2018-05-15T17:49:38.654Z,101420.20
2018-05-15T17:52:09.419Z,101413.44
2018-05-15T17:54:38.551Z,101413.88
2018-05-15T17:57:07.688Z,101411.16
2018-05-15T17:59:40.956Z,101412.27
2018-05-15T18:02:10.083Z,101414.74
2018-05-15T18:04:42.485Z,101418.66
2018-05-15T18:07:11.894Z,101423.29
2018-05-15T18:09:44.806Z,101427.92
2018-05-15T18:12:14.545Z,101431.69
2018-05-15T18:14:46.625Z,101422.05
2018-05-15T18:17:16.408Z,101429.27
2018-05-15T18:19:46.724Z,101426.58
2018-05-15T18:22:17.113Z,101433.56
2018-05-15T18:24:46.259Z,101430.48
2018-05-15T18:27:15.800Z,101434.63
2018-05-15T18:29:48.624Z,101438.88
2018-05-15T18:32:17.940Z,101439.19
2018-05-15T18:34:47.081Z,101439.66
2018-05-15T18:37:19.691Z,101439.39
2018-05-15T18:39:49.054Z,101441.78
2018-05-15T18:42:21.175Z,101442.73
2018-05-15T18:44:50.449Z,101440.11
2018-05-15T18:47:22.175Z,101443.59
2018-05-15T18:49:51.483Z,101444.16
2018-05-15T18:52:21.754Z,101450.06
2018-05-15T18:54:50.820Z,101455.38
2018-05-15T18:57:20.084Z,101442.44
2018-05-15T18:59:51.478Z,101445.98
2018-05-15T19:02:21.036Z,101451.09
2018-05-15T19:04:51.204Z,101455.29
2018-05-15T19:07:20.699Z,101450.63
2018-05-15T19:09:52.366Z,101452.59
2018-05-15T19:12:22.717Z,101463.97
2018-05-15T19:14:52.170Z,101470.66
2018-05-15T19:17:27.501Z,101474.83
2018-05-15T19:19:57.401Z,101474.86
2018-05-15T19:22:29.535Z,101472.59
2018-05-15T19:24:58.657Z,101477.48
2018-05-15T19:27:30.872Z,101481.61
2018-05-15T19:30:00.094Z,101483.94
2018-05-15T19:32:38.577Z,101487.22
2018-05-15T19:35:10.002Z,101492.62
2018-05-15T19:37:39.534Z,101493.11
2018-05-15T19:40:14.611Z,101495.89
2018-05-15T19:42:45.053Z,101495.03
2018-05-15T19:45:15.149Z,101497.81
2018-05-15T19:47:44.577Z,101504.13
2018-05-15T19:50:16.176Z,101510.38
2018-05-15T19:52:47.792Z,101508.62
2018-05-15T19:55:17.015Z,101514.00
2018-05-15T19:57:49.500Z,101511.92
2018-05-15T20:00:20.263Z,101520.11
2018-05-15T20:02:49.417Z,101519.56
2018-05-15T20:05:21.435Z,101519.28
2018-05-15T20:07:50.783Z,101522.69
2018-05-15T20:10:19.914Z,101527.41
2018-05-15T20:12:49.033Z,101535.43
2018-05-15T20:15:20.445Z,101528.48
2018-05-15T20:17:49.575Z,101531.10
2018-05-15T20:20:21.552Z,101534.61
2018-05-15T20:22:50.981Z,101528.58
2018-05-15T20:25:22.512Z,101532.00
2018-05-15T20:27:51.628Z,101530.56
2018-05-15T20:30:22.707Z,101539.95
2018-05-15T20:32:54.375Z,101538.88
2018-05-15T20:35:23.863Z,101538.34
2018-05-15T20:37:54.324Z,101537.77
2018-05-15T20:40:23.474Z,101537.22
2018-05-15T20:42:55.686Z,101536.30
2018-05-15T20:45:25.575Z,101536.59
2018-05-15T20:47:57.383Z,101540.59
2018-05-15T20:50:31.585Z,101541.86
2018-05-15T20:53:03.180Z,101539.05
2018-05-15T20:55:34.886Z,101542.21
2018-05-15T20:58:06.875Z,101543.94
2018-05-15T21:00:39.705Z,101551.47
2018-05-15T21:03:19.382Z,101545.52
2018-05-15T21:05:51.277Z,101553.60
2018-05-15T21:08:25.216Z,101552.14
2018-05-15T21:11:00.676Z,101552.11
2018-05-15T21:13:35.124Z,101546.70
2018-05-15T21:16:05.031Z,101544.86
2018-05-15T21:18:35.011Z,101550.12
2018-05-15T21:21:05.110Z,101548.34
2018-05-15T21:23:35.042Z,101544.17
2018-05-15T21:26:05.073Z,101550.98
2018-05-15T21:28:35.124Z,101558.09
2018-05-15T21:31:05.569Z,101561.11
2018-05-15T21:33:35.419Z,101555.33
2018-05-15T21:36:05.614Z,101558.90
2018-05-15T21:38:35.399Z,101560.62
2018-05-15T21:41:05.175Z,101556.05
2018-05-15T21:43:34.890Z,101555.63
2018-05-15T21:46:04.751Z,101549.30
2018-05-15T21:48:39.373Z,101551.42
2018-05-15T21:51:14.264Z,101543.83
2018-05-15T21:53:55.166Z,101544.61
2018-05-15T21:56:29.926Z,101543.25
2018-05-15T21:59:13.349Z,101543.20
2018-05-15T22:01:51.143Z,101541.81
2018-05-15T22:04:26.477Z,101541.81
2018-05-15T22:06:57.539Z,101535.92
2018-05-15T22:09:30.688Z,101549.44
2018-05-15T22:12:16.065Z,101554.42
2018-05-15T22:14:59.731Z,101547.23
2018-05-15T22:17:45.287Z,101549.44
2018-05-15T22:20:33.559Z,101547.53
2018-05-15T22:23:07.415Z,101548.95
2018-05-15T22:25:39.609Z,101548.95
2018-05-15T22:28:15.391Z,101549.38
2018-05-15T22:30:51.679Z,101545.33
2018-05-15T22:33:32.413Z,101543.31
2018-05-15T22:36:04.992Z,101540.75
2018-05-15T22:38:39.024Z,101537.01
2018-05-15T22:41:10.302Z,101535.66
2018-05-15T22:43:42.319Z,101535.57
2018-05-15T22:46:16.574Z,101529.81
2018-05-15T22:48:48.991Z,101528.87
2018-05-15T22:51:20.746Z,101527.89
2018-05-15T22:53:55.721Z,101532.92
2018-05-15T22:56:29.984Z,101536.92
2018-05-15T22:59:13.146Z,101538.22
2018-05-15T23:01:50.827Z,101535.52
2018-05-15T23:04:24.674Z,101542.39
2018-05-15T23:07:01.927Z,101540.61
2018-05-15T23:09:34.744Z,101547.59
2018-05-15T23:12:07.349Z,101543.74
2018-05-15T23:14:38.751Z,101547.52
2018-05-15T23:17:12.702Z,101546.81
2018-05-15T23:19:50.400Z,101546.16
2018-05-15T23:22:36.144Z,101541.87
2018-05-15T23:25:11.712Z,101543.09
2018-05-15T23:27:47.329Z,101535.76
2018-05-15T23:30:23.183Z,101526.41
2018-05-15T23:32:58.048Z,101522.75
2018-05-15T23:35:31.429Z,101525.45
2018-05-15T23:38:05.190Z,101526.36
2018-05-15T23:40:40.192Z,101525.58
2018-05-15T23:43:17.754Z,101522.86
2018-05-15T23:45:55.440Z,101512.78
2018-05-15T23:48:29.489Z,101511.25
2018-05-15T23:51:02.848Z,101516.17
2018-05-15T23:53:35.878Z,101515.64
2018-05-15T23:56:12.959Z,101515.64
2018-05-15T23:58:53.225Z,101518.80
